Time;durP1;ratioP1;P1;durP2;ratioP2;P2;SDS_P1;SDS_P2;PMS_P1;PMS_P2;Temp;Humidity;BMP_temperature;BMP_pressure;BME280_temperature;BME280_humidity;BME280_pressure;Samples;Min_cycle;Max_cycle;Signal;HPM_P1;HPM_P2
2021/04/19 00:00:08;;;;;;;1.77;1.27;;;;;;;;;;5066612;28;20039;-68
2021/04/19 00:02:33;;;;;;;2.25;1.23;;;;;;;;;;5067709;28;20130;-62
2021/04/19 00:04:59;;;;;;;4.57;1.85;;;;;;;;;;5069260;28;20665;-62
2021/04/19 00:07:24;;;;;;;1.38;1.17;;;;;;;;;;5067388;28;20467;-68
2021/04/19 00:09:49;;;;;;;1.30;1.20;;;;;;;;;;5066342;28;20098;-68
2021/04/19 00:12:14;;;;;;;2.50;1.17;;;;;;;;;;5068718;28;20383;-68
2021/04/19 00:14:40;;;;;;;1.73;1.00;;;;;;;;;;5066630;28;20078;-68
2021/04/19 00:17:05;;;;;;;4.10;1.23;;;;;;;;;;5057643;28;20184;-62
2021/04/19 00:19:30;;;;;;;2.50;1.38;;;;;;;;;;5069880;28;20036;-61
2021/04/19 00:21:56;;;;;;;2.78;2.15;;;;;;;;;;5069289;28;20029;-61
2021/04/19 00:24:21;;;;;;;2.72;1.05;;;;;;;;;;5066930;28;20062;-62
2021/04/19 00:26:46;;;;;;;4.72;1.23;;;;;;;;;;5066450;28;20093;-62
2021/04/19 00:29:12;;;;;;;1.38;1.10;;;;;;;;;;5066424;28;20924;-62
2021/04/19 00:31:37;;;;;;;2.08;1.10;;;;;;;;;;5067656;28;20411;-68
2021/04/19 00:34:03;;;;;;;1.15;0.82;;;;;;;;;;5064128;28;20044;-67
2021/04/19 00:36:28;;;;;;;2.67;0.93;;;;;;;;;;5071285;28;20044;-63
2021/04/19 00:38:54;;;;;;;2.50;1.52;;;;;;;;;;5067173;28;20024;-68
2021/04/19 00:41:19;;;;;;;2.40;1.33;;;;;;;;;;5070287;28;20032;-67
2021/04/19 00:43:45;;;;;;;2.42;1.10;;;;;;;;;;5066798;28;20017;-68
2021/04/19 00:46:10;;;;;;;3.35;1.25;;;;;;;;;;5068504;28;20067;-68
2021/04/19 00:48:36;;;;;;;6.20;1.17;;;;;;;;;;5068071;28;20024;-62
2021/04/19 00:51:02;;;;;;;1.08;0.88;;;;;;;;;;5065027;28;20041;-62
2021/04/19 00:53:28;;;;;;;3.67;1.38;;;;;;;;;;5066841;28;20423;-63
2021/04/19 00:55:54;;;;;;;2.50;0.80;;;;;;;;;;5061685;28;21193;-62
2021/04/19 00:58:29;;;;;;;1.40;1.10;;;;;;;;;;5067277;28;20028;-62
2021/04/19 01:00:55;;;;;;;1.85;1.00;;;;;;;;;;5067207;28;20021;-62
2021/04/19 01:03:21;;;;;;;3.90;2.13;;;;;;;;;;5068779;28;20024;-68
2021/04/19 01:05:47;;;;;;;3.00;2.15;;;;;;;;;;5067861;28;20059;-67
2021/04/19 01:08:13;;;;;;;10.10;4.25;;;;;;;;;;5066612;28;20106;-67
2021/04/19 01:10:38;;;;;;;2.90;1.73;;;;;;;;;;5068825;28;20036;-67
2021/04/19 01:13:04;;;;;;;1.55;0.95;;;;;;;;;;5072100;28;20028;-67
2021/04/19 01:15:30;;;;;;;1.75;1.27;;;;;;;;;;5072240;28;20021;-61
2021/04/19 01:17:55;;;;;;;1.52;1.00;;;;;;;;;;5072154;28;20044;-61
2021/04/19 01:20:22;;;;;;;1.92;1.23;;;;;;;;;;5072685;28;20024;-68
2021/04/19 01:22:47;;;;;;;4.60;1.08;;;;;;;;;;5072321;28;20020;-68
2021/04/19 01:25:14;;;;;;;2.80;1.10;;;;;;;;;;5067152;28;20121;-68
2021/04/19 01:27:39;;;;;;;3.10;1.40;;;;;;;;;;5073477;28;20060;-68
2021/04/19 01:30:05;;;;;;;1.23;0.93;;;;;;;;;;5069461;28;20099;-68
2021/04/19 01:32:31;;;;;;;10.00;2.55;;;;;;;;;;5069142;28;20024;-68
2021/04/19 01:34:56;;;;;;;2.15;1.45;;;;;;;;;;5069281;28;20520;-69
2021/04/19 01:37:22;;;;;;;2.25;1.27;;;;;;;;;;5073422;28;20032;-62
2021/04/19 01:39:47;;;;;;;3.00;1.33;;;;;;;;;;5073668;28;21487;-69
2021/04/19 01:42:12;;;;;;;1.23;0.73;;;;;;;;;;5071661;28;20032;-68
2021/04/19 01:44:38;;;;;;;1.73;1.00;;;;;;;;;;5064631;28;20032;-61
2021/04/19 01:47:03;;;;;;;11.82;9.80;;;;;;;;;;5069958;28;20025;-61
2021/04/19 01:49:30;;;;;;;10.80;7.95;;;;;;;;;;5069074;28;20035;-61
2021/04/19 01:51:55;;;;;;;2.25;1.42;;;;;;;;;;5069767;28;20105;-68
2021/04/19 01:54:20;;;;;;;2.10;1.30;;;;;;;;;;5071783;28;20056;-68
2021/04/19 01:56:46;;;;;;;6.28;1.02;;;;;;;;;;5070682;28;20024;-68
2021/04/19 01:59:11;;;;;;;1.58;1.08;;;;;;;;;;5069298;28;20245;-68
2021/04/19 02:01:42;;;;;;;2.28;1.35;;;;;;;;;;5067700;28;20027;-61
2021/04/19 02:04:07;;;;;;;1.63;0.88;;;;;;;;;;5069227;28;20097;-67
2021/04/19 02:06:55;;;;;;;0.73;0.63;;;;;;;;;;5071129;28;20028;-62
2021/04/19 02:09:39;;;;;;;3.20;1.73;;;;;;;;;;5032892;28;20403;-61
2021/04/19 02:12:04;;;;;;;1.38;0.90;;;;;;;;;;5070837;28;20530;-68
2021/04/19 02:14:30;;;;;;;1.90;1.27;;;;;;;;;;5069473;28;20044;-67
2021/04/19 02:17:02;;;;;;;2.72;1.35;;;;;;;;;;5066610;28;20040;-62
2021/04/19 02:19:27;;;;;;;2.22;1.27;;;;;;;;;;5065272;28;20123;-62
2021/04/19 02:22:01;;;;;;;1.83;1.08;;;;;;;;;;5068564;28;20123;-67
2021/04/19 02:24:29;;;;;;;6.60;0.98;;;;;;;;;;5074686;28;20056;-68
2021/04/19 02:26:56;;;;;;;3.30;1.42;;;;;;;;;;5068384;28;20029;-69
2021/04/19 02:29:26;;;;;;;1.38;1.10;;;;;;;;;;5068750;28;20127;-68
2021/04/19 02:31:56;;;;;;;3.25;1.27;;;;;;;;;;5069635;28;20016;-62
2021/04/19 02:34:23;;;;;;;1.45;0.70;;;;;;;;;;5068650;28;20021;-62
2021/04/19 02:36:49;;;;;;;5.65;1.63;;;;;;;;;;5068160;28;20814;-62
2021/04/19 02:39:15;;;;;;;1.85;1.02;;;;;;;;;;5072752;28;20040;-61
2021/04/19 02:41:41;;;;;;;2.80;0.93;;;;;;;;;;5069933;28;20039;-61
2021/04/19 02:44:10;;;;;;;2.95;1.33;;;;;;;;;;5068738;28;20031;-62
2021/04/19 02:46:36;;;;;;;1.42;1.00;;;;;;;;;;5068069;28;20040;-62
2021/04/19 02:49:01;;;;;;;1.83;1.00;;;;;;;;;;5067294;28;20020;-68
2021/04/19 02:51:27;;;;;;;2.63;2.00;;;;;;;;;;5069488;28;20016;-62
2021/04/19 02:53:53;;;;;;;2.30;1.35;;;;;;;;;;5072248;28;20414;-67
2021/04/19 02:56:19;;;;;;;2.55;1.27;;;;;;;;;;5067517;28;20021;-68
2021/04/19 02:58:49;;;;;;;1.73;1.15;;;;;;;;;;5069740;28;20628;-62
2021/04/19 03:01:24;;;;;;;1.35;1.15;;;;;;;;;;5069374;28;20581;-62
2021/04/19 03:03:52;;;;;;;1.90;1.13;;;;;;;;;;5068759;28;20383;-62
2021/04/19 03:06:18;;;;;;;1.83;1.20;;;;;;;;;;5069981;28;20404;-68
2021/04/19 03:08:51;;;;;;;2.88;1.63;;;;;;;;;;5071461;28;20032;-69
2021/04/19 03:11:22;;;;;;;2.67;1.10;;;;;;;;;;5073312;28;20078;-62
2021/04/19 03:13:49;;;;;;;2.97;1.47;;;;;;;;;;5069070;28;20459;-67
2021/04/19 03:16:14;;;;;;;7.25;2.10;;;;;;;;;;5070232;28;20727;-61
2021/04/19 03:18:40;;;;;;;4.47;2.17;;;;;;;;;;5065792;28;20055;-61
2021/04/19 03:21:08;;;;;;;1.92;1.55;;;;;;;;;;5068519;28;20036;-61
2021/04/19 03:23:35;;;;;;;4.25;1.67;;;;;;;;;;5074594;28;20103;-67
2021/04/19 03:26:01;;;;;;;1.90;1.08;;;;;;;;;;5073950;28;20052;-62
2021/04/19 03:28:28;;;;;;;2.50;1.58;;;;;;;;;;5068255;28;20024;-61
2021/04/19 03:30:53;;;;;;;3.95;1.33;;;;;;;;;;5067400;28;20391;-62
2021/04/19 03:33:19;;;;;;;4.65;2.78;;;;;;;;;;5067515;28;20035;-61
2021/04/19 03:35:46;;;;;;;3.85;1.55;;;;;;;;;;5067355;28;20073;-61
2021/04/19 03:38:13;;;;;;;1.73;1.08;;;;;;;;;;5067545;28;20035;-61
2021/04/19 03:40:40;;;;;;;4.72;1.60;;;;;;;;;;5062700;28;20103;-62
2021/04/19 03:43:06;;;;;;;4.28;1.38;;;;;;;;;;5068177;28;20450;-68
2021/04/19 03:45:33;;;;;;;3.30;1.00;;;;;;;;;;5068018;28;20132;-69
2021/04/19 03:47:59;;;;;;;4.82;2.00;;;;;;;;;;5067398;28;20073;-62
2021/04/19 03:50:25;;;;;;;2.50;1.40;;;;;;;;;;5068621;28;20036;-67
2021/04/19 03:52:53;;;;;;;2.25;1.50;;;;;;;;;;5069904;28;20057;-67
2021/04/19 03:55:18;;;;;;;2.20;0.80;;;;;;;;;;5069327;28;20077;-68
2021/04/19 03:57:45;;;;;;;4.50;0.80;;;;;;;;;;5067985;28;20742;-68
2021/04/19 04:00:16;;;;;;;2.53;1.27;;;;;;;;;;5068561;28;20032;-62
2021/04/19 04:02:44;;;;;;;2.95;1.50;;;;;;;;;;5069409;28;20020;-67
2021/04/19 04:05:11;;;;;;;1.70;1.33;;;;;;;;;;5066837;28;20067;-62
2021/04/19 04:07:37;;;;;;;2.05;1.40;;;;;;;;;;5067487;28;20036;-61
2021/04/19 04:10:03;;;;;;;2.20;1.05;;;;;;;;;;5065081;28;20036;-68
2021/04/19 04:12:28;;;;;;;1.90;0.80;;;;;;;;;;5067194;28;20907;-68
2021/04/19 04:14:57;;;;;;;1.42;0.80;;;;;;;;;;5066256;28;20040;-68
2021/04/19 04:17:23;;;;;;;14.02;1.80;;;;;;;;;;5066375;28;20402;-62
2021/04/19 04:19:48;;;;;;;3.10;1.38;;;;;;;;;;5066954;28;20032;-68
2021/04/19 04:22:14;;;;;;;1.45;0.98;;;;;;;;;;5066854;28;20103;-62
2021/04/19 04:24:40;;;;;;;3.33;1.13;;;;;;;;;;5069730;28;20539;-62
2021/04/19 04:27:06;;;;;;;2.25;1.48;;;;;;;;;;5066088;28;20146;-62
2021/04/19 04:29:31;;;;;;;2.28;1.15;;;;;;;;;;5066997;28;20077;-61
2021/04/19 04:31:56;;;;;;;1.67;0.88;;;;;;;;;;5067895;28;20140;-61
2021/04/19 04:34:22;;;;;;;2.30;1.50;;;;;;;;;;5066382;28;20111;-62
2021/04/19 04:36:47;;;;;;;0.60;0.38;;;;;;;;;;5065162;28;20082;-62
2021/04/19 04:39:12;;;;;;;2.90;1.55;;;;;;;;;;5069574;28;20036;-62
2021/04/19 04:41:38;;;;;;;5.90;2.17;;;;;;;;;;5071454;28;20021;-67
2021/04/19 04:44:04;;;;;;;2.85;1.60;;;;;;;;;;5065189;28;20144;-62
2021/04/19 04:46:35;;;;;;;5.47;1.63;;;;;;;;;;5067137;28;20038;-62
2021/04/19 04:49:09;;;;;;;7.00;1.45;;;;;;;;;;5062685;28;20032;-68
2021/04/19 04:51:36;;;;;;;2.28;0.95;;;;;;;;;;5068484;28;20097;-67
2021/04/19 04:54:03;;;;;;;2.05;1.20;;;;;;;;;;5066167;28;20384;-68
2021/04/19 04:56:31;;;;;;;9.07;1.55;;;;;;;;;;5066123;28;20075;-68
2021/04/19 04:58:57;;;;;;;2.58;1.05;;;;;;;;;;5066475;28;20035;-61
2021/04/19 05:01:23;;;;;;;73.57;51.30;;;;;;;;;;5069265;28;20030;-62
2021/04/19 05:03:49;;;;;;;5.10;2.05;;;;;;;;;;5068686;28;20467;-62
2021/04/19 05:06:15;;;;;;;3.35;1.75;;;;;;;;;;5070448;28;20021;-62
2021/04/19 05:08:40;;;;;;;3.95;2.03;;;;;;;;;;5071127;28;20032;-62
2021/04/19 05:11:07;;;;;;;3.83;2.15;;;;;;;;;;5070668;28;20478;-62
2021/04/19 05:13:32;;;;;;;1.35;1.15;;;;;;;;;;5071144;28;20145;-62
2021/04/19 05:15:57;;;;;;;19.05;4.15;;;;;;;;;;5070530;28;20044;-62
2021/04/19 05:18:23;;;;;;;9.45;1.92;;;;;;;;;;5069211;28;20048;-62
2021/04/19 05:20:48;;;;;;;3.08;1.13;;;;;;;;;;5070333;28;20067;-62
2021/04/19 05:23:15;;;;;;;21.15;5.57;;;;;;;;;;5071018;28;20036;-62
2021/04/19 05:25:40;;;;;;;2.17;1.42;;;;;;;;;;5070587;28;20102;-62
2021/04/19 05:28:06;;;;;;;9.77;1.67;;;;;;;;;;5070533;28;20052;-62
2021/04/19 05:30:32;;;;;;;3.95;1.25;;;;;;;;;;5070401;28;20025;-62
2021/04/19 05:32:58;;;;;;;2.78;1.75;;;;;;;;;;5070316;28;20472;-62
2021/04/19 05:35:23;;;;;;;1.80;1.35;;;;;;;;;;5069106;28;20024;-62
2021/04/19 05:37:49;;;;;;;2.03;1.65;;;;;;;;;;5069572;28;20504;-62
2021/04/19 05:40:15;;;;;;;3.00;1.73;;;;;;;;;;5070605;28;20498;-60
2021/04/19 05:42:40;;;;;;;1.95;1.40;;;;;;;;;;5070546;28;20471;-59
2021/04/19 05:45:07;;;;;;;4.93;3.47;;;;;;;;;;5070488;28;20081;-59
2021/04/19 05:47:32;;;;;;;13.88;11.38;;;;;;;;;;5070551;28;20028;-63
2021/04/19 05:49:57;;;;;;;7.78;5.70;;;;;;;;;;5070084;28;20382;-62
2021/04/19 05:52:24;;;;;;;9.18;5.13;;;;;;;;;;5070188;28;20031;-62
2021/04/19 05:54:49;;;;;;;3.17;2.55;;;;;;;;;;5069262;28;20487;-62
2021/04/19 05:57:19;;;;;;;6.13;1.60;;;;;;;;;;5072990;28;20121;-62
2021/04/19 05:59:56;;;;;;;6.15;5.53;;;;;;;;;;5073897;28;20448;-62
2021/04/19 06:02:29;;;;;;;10.85;4.60;;;;;;;;;;5071228;28;20046;-68
2021/04/19 06:04:59;;;;;;;4.05;3.13;;;;;;;;;;5073596;28;20119;-68
2021/04/19 06:07:46;;;;;;;10.85;4.97;;;;;;;;;;5073715;28;20112;-68
2021/04/19 06:10:17;;;;;;;13.43;9.18;;;;;;;;;;5072369;28;20036;-68
2021/04/19 06:12:49;;;;;;;7.68;4.10;;;;;;;;;;5070364;28;20111;-68
2021/04/19 06:15:15;;;;;;;7.40;2.85;;;;;;;;;;5073490;28;20025;-68
2021/04/19 06:17:45;;;;;;;4.70;4.30;;;;;;;;;;5069745;28;20041;-68
2021/04/19 06:20:12;;;;;;;4.40;2.85;;;;;;;;;;5073265;28;20498;-68
2021/04/19 06:22:37;;;;;;;1.38;1.00;;;;;;;;;;5073111;28;20125;-68
2021/04/19 06:25:02;;;;;;;5.38;2.05;;;;;;;;;;5073394;28;20049;-68
2021/04/19 06:27:28;;;;;;;2.75;1.08;;;;;;;;;;5073153;28;20021;-68
2021/04/19 06:29:53;;;;;;;1.40;0.90;;;;;;;;;;5073372;28;20462;-68
2021/04/19 06:32:22;;;;;;;2.45;1.63;;;;;;;;;;5073031;28;20024;-69
2021/04/19 06:34:47;;;;;;;3.00;2.13;;;;;;;;;;5073058;28;20071;-68
2021/04/19 06:37:13;;;;;;;3.30;1.65;;;;;;;;;;5073305;28;20052;-68
2021/04/19 06:39:38;;;;;;;3.65;2.13;;;;;;;;;;5072748;28;20032;-71
2021/04/19 06:42:05;;;;;;;4.97;2.40;;;;;;;;;;5072602;28;20029;-68
2021/04/19 06:44:30;;;;;;;15.68;2.90;;;;;;;;;;5072169;28;20078;-68
2021/04/19 06:46:58;;;;;;;12.20;3.97;;;;;;;;;;5072605;28;20037;-68
2021/04/19 06:49:23;;;;;;;10.90;2.95;;;;;;;;;;5072805;28;20116;-69
2021/04/19 06:51:49;;;;;;;7.90;2.78;;;;;;;;;;5072837;28;20104;-68
2021/04/19 06:54:14;;;;;;;3.97;3.00;;;;;;;;;;5072931;28;20025;-69
2021/04/19 06:56:41;;;;;;;6.45;1.90;;;;;;;;;;5072593;28;20016;-68
2021/04/19 06:59:11;;;;;;;4.93;3.05;;;;;;;;;;5073096;28;20021;-68
2021/04/19 07:01:37;;;;;;;5.13;3.17;;;;;;;;;;5072649;28;20016;-63
2021/04/19 07:04:04;;;;;;;12.15;6.43;;;;;;;;;;5072775;28;20025;-66
2021/04/19 07:06:33;;;;;;;9.65;7.57;;;;;;;;;;5072151;28;20024;-68
2021/04/19 07:09:02;;;;;;;13.00;10.38;;;;;;;;;;5072245;28;20442;-68
2021/04/19 07:11:30;;;;;;;14.25;9.15;;;;;;;;;;5070739;28;20019;-68
2021/04/19 07:13:56;;;;;;;34.83;24.80;;;;;;;;;;5072174;28;20419;-68
2021/04/19 07:16:21;;;;;;;37.42;23.85;;;;;;;;;;5072664;28;20027;-68
2021/04/19 07:18:47;;;;;;;24.40;14.52;;;;;;;;;;5071890;28;20064;-68
2021/04/19 07:21:12;;;;;;;13.07;11.73;;;;;;;;;;5067554;28;20036;-68
2021/04/19 07:23:39;;;;;;;31.50;9.85;;;;;;;;;;5067993;28;20445;-68
2021/04/19 07:26:04;;;;;;;5.97;4.70;;;;;;;;;;5070934;28;20024;-68
2021/04/19 07:28:35;;;;;;;6.80;5.03;;;;;;;;;;5071476;28;20822;-67
2021/04/19 07:31:01;;;;;;;7.20;4.50;;;;;;;;;;5069656;28;20085;-68
2021/04/19 07:33:28;;;;;;;6.72;3.75;;;;;;;;;;5068872;28;20040;-67
2021/04/19 07:35:53;;;;;;;9.02;4.15;;;;;;;;;;5068632;28;20025;-69
2021/04/19 07:38:32;;;;;;;6.28;4.30;;;;;;;;;;5067723;28;20103;-67
2021/04/19 07:40:57;;;;;;;17.75;7.13;;;;;;;;;;5068430;28;20056;-64
2021/04/19 07:43:24;;;;;;;4.30;3.15;;;;;;;;;;5068815;28;20055;-64
2021/04/19 07:46:09;;;;;;;4.88;3.03;;;;;;;;;;5067309;28;20021;-64
2021/04/19 07:48:37;;;;;;;4.40;2.75;;;;;;;;;;5073213;28;20057;-68
2021/04/19 07:51:21;;;;;;;5.07;3.78;;;;;;;;;;5071802;28;20104;-69
2021/04/19 07:53:46;;;;;;;7.78;4.45;;;;;;;;;;5069969;28;20062;-69
2021/04/19 07:56:16;;;;;;;6.25;2.60;;;;;;;;;;5069808;28;20109;-69
2021/04/19 07:58:41;;;;;;;4.63;2.92;;;;;;;;;;5069616;28;20036;-69
2021/04/19 08:01:06;;;;;;;5.32;2.75;;;;;;;;;;5070350;28;20024;-67
2021/04/19 08:03:41;;;;;;;6.18;3.40;;;;;;;;;;5069812;28;20082;-70
2021/04/19 08:06:20;;;;;;;7.95;3.83;;;;;;;;;;5068792;28;20032;-68
2021/04/19 08:08:45;;;;;;;5.15;2.53;;;;;;;;;;5069622;28;20505;-70
2021/04/19 08:11:14;;;;;;;7.65;3.28;;;;;;;;;;5069805;28;20063;-69
2021/04/19 08:13:40;;;;;;;5.78;2.33;;;;;;;;;;5067195;28;20095;-67
2021/04/19 08:16:21;;;;;;;4.35;2.33;;;;;;;;;;5072042;28;20166;-68
2021/04/19 08:18:47;;;;;;;4.90;3.15;;;;;;;;;;5069765;28;20173;-68
2021/04/19 08:21:13;;;;;;;8.13;2.47;;;;;;;;;;5072021;28;20046;-68
2021/04/19 08:23:44;;;;;;;2.85;1.55;;;;;;;;;;5068388;28;20024;-62
2021/04/19 08:26:10;;;;;;;2.85;1.95;;;;;;;;;;5068241;28;20070;-62
2021/04/19 08:28:46;;;;;;;3.50;2.38;;;;;;;;;;5068517;28;20037;-62
2021/04/19 08:31:12;;;;;;;2.38;1.75;;;;;;;;;;5067985;28;20035;-62
2021/04/19 08:33:37;;;;;;;2.60;1.20;;;;;;;;;;5067514;28;20016;-68
2021/04/19 08:36:05;;;;;;;3.83;2.00;;;;;;;;;;5071193;28;20048;-68
2021/04/19 08:38:31;;;;;;;6.05;1.90;;;;;;;;;;5069819;28;20425;-68
2021/04/19 08:40:56;;;;;;;3.88;1.85;;;;;;;;;;5069249;28;20016;-67
2021/04/19 08:43:22;;;;;;;3.10;2.03;;;;;;;;;;5070073;28;20016;-68
2021/04/19 08:45:48;;;;;;;4.85;2.50;;;;;;;;;;5069700;28;20020;-62
2021/04/19 08:48:14;;;;;;;4.90;2.47;;;;;;;;;;5068112;28;21008;-62
2021/04/19 08:50:40;;;;;;;4.25;2.70;;;;;;;;;;5067950;28;20024;-62
2021/04/19 08:53:09;;;;;;;8.30;2.83;;;;;;;;;;5069431;28;20021;-62
2021/04/19 08:55:35;;;;;;;2.38;1.40;;;;;;;;;;5067395;28;20022;-63
2021/04/19 08:58:05;;;;;;;8.57;2.05;;;;;;;;;;5066474;28;20020;-62
2021/04/19 09:00:31;;;;;;;2.17;1.27;;;;;;;;;;5066385;28;20025;-62
2021/04/19 09:02:59;;;;;;;3.97;1.73;;;;;;;;;;5066679;28;20035;-62
2021/04/19 09:05:24;;;;;;;3.70;2.38;;;;;;;;;;5066245;28;20029;-62
2021/04/19 09:08:00;;;;;;;9.02;1.95;;;;;;;;;;5066053;28;20423;-62
2021/04/19 09:10:26;;;;;;;8.35;1.88;;;;;;;;;;5065901;28;20028;-62
2021/04/19 09:12:51;;;;;;;3.88;1.85;;;;;;;;;;5066811;28;20074;-63
2021/04/19 09:15:17;;;;;;;2.47;1.83;;;;;;;;;;5067234;28;20036;-62
2021/04/19 09:17:43;;;;;;;2.13;1.40;;;;;;;;;;5067735;28;20506;-63
2021/04/19 09:20:10;;;;;;;3.47;1.83;;;;;;;;;;5067262;28;20028;-63
2021/04/19 09:22:35;;;;;;;5.45;1.88;;;;;;;;;;5070116;28;20036;-62
2021/04/19 09:25:14;;;;;;;3.55;1.90;;;;;;;;;;5067624;28;20029;-63
2021/04/19 09:27:42;;;;;;;5.15;1.23;;;;;;;;;;5067664;28;20039;-63
2021/04/19 09:30:19;;;;;;;1.67;0.85;;;;;;;;;;5068237;28;20099;-62
2021/04/19 09:32:44;;;;;;;6.20;2.28;;;;;;;;;;5072857;28;20100;-62
2021/04/19 09:35:30;;;;;;;3.40;1.77;;;;;;;;;;5070122;28;20107;-63
2021/04/19 09:37:55;;;;;;;2.83;1.50;;;;;;;;;;5071437;28;20036;-64
2021/04/19 09:40:23;;;;;;;3.15;1.60;;;;;;;;;;5071301;28;20028;-64
2021/04/19 09:43:13;;;;;;;3.35;1.80;;;;;;;;;;5071264;28;20040;-64
2021/04/19 09:45:41;;;;;;;3.15;1.40;;;;;;;;;;5071057;28;20020;-63
2021/04/19 09:48:06;;;;;;;6.53;1.58;;;;;;;;;;5069370;28;20067;-63
2021/04/19 09:50:31;;;;;;;6.15;1.67;;;;;;;;;;5067479;28;20052;-64
2021/04/19 09:52:57;;;;;;;6.28;0.90;;;;;;;;;;5070503;28;20021;-64
2021/04/19 09:55:22;;;;;;;2.45;1.48;;;;;;;;;;5068234;28;20112;-62
2021/04/19 09:57:48;;;;;;;2.95;1.58;;;;;;;;;;5074259;28;20074;-64
2021/04/19 10:00:13;;;;;;;3.65;1.35;;;;;;;;;;5072499;28;20024;-64
2021/04/19 10:02:42;;;;;;;2.63;1.77;;;;;;;;;;5064826;28;20417;-64
2021/04/19 10:05:12;;;;;;;2.42;1.50;;;;;;;;;;5070219;28;20115;-71
2021/04/19 10:07:45;;;;;;;11.48;2.28;;;;;;;;;;5073469;28;20033;-66
2021/04/19 10:10:17;;;;;;;1.55;1.00;;;;;;;;;;5074300;28;20483;-64
2021/04/19 10:12:46;;;;;;;5.50;1.77;;;;;;;;;;5071275;28;20408;-70
2021/04/19 10:15:19;;;;;;;11.35;4.40;;;;;;;;;;5067624;28;20020;-66
2021/04/19 10:17:44;;;;;;;3.08;2.17;;;;;;;;;;5071512;28;20053;-66
2021/04/19 10:20:16;;;;;;;8.70;5.28;;;;;;;;;;5069915;28;20127;-66
2021/04/19 10:22:42;;;;;;;5.60;2.55;;;;;;;;;;5078605;28;20522;-66
2021/04/19 10:25:07;;;;;;;3.88;2.60;;;;;;;;;;5070171;28;20040;-66
2021/04/19 10:27:33;;;;;;;11.40;3.90;;;;;;;;;;5069995;28;20059;-66
2021/04/19 10:30:09;;;;;;;4.85;1.60;;;;;;;;;;5070008;28;20020;-66
2021/04/19 10:32:34;;;;;;;6.82;2.03;;;;;;;;;;5069267;28;20031;-65
2021/04/19 10:35:00;;;;;;;10.30;2.42;;;;;;;;;;5068858;28;20335;-66
2021/04/19 10:37:25;;;;;;;2.05;1.45;;;;;;;;;;5069596;28;20028;-65
2021/04/19 10:39:50;;;;;;;2.00;1.27;;;;;;;;;;5068387;28;20079;-66
2021/04/19 10:42:22;;;;;;;4.45;1.67;;;;;;;;;;5068796;28;20079;-66
2021/04/19 10:44:47;;;;;;;4.55;1.98;;;;;;;;;;5069761;28;20466;-65
2021/04/19 10:47:14;;;;;;;2.97;1.42;;;;;;;;;;5068994;28;20032;-66
2021/04/19 10:49:40;;;;;;;13.95;2.88;;;;;;;;;;5068646;28;20080;-66
2021/04/19 10:52:06;;;;;;;2.83;1.80;;;;;;;;;;5072678;28;20036;-67
2021/04/19 10:54:34;;;;;;;3.15;1.52;;;;;;;;;;5068273;28;20033;-64
2021/04/19 10:57:00;;;;;;;2.60;2.05;;;;;;;;;;5068931;28;20028;-66
2021/04/19 10:59:26;;;;;;;4.93;1.85;;;;;;;;;;5068345;28;20068;-65
2021/04/19 11:02:02;;;;;;;5.53;2.72;;;;;;;;;;5067643;28;20067;-65
2021/04/19 11:04:27;;;;;;;3.28;1.58;;;;;;;;;;5065835;28;20032;-66
2021/04/19 11:06:53;;;;;;;5.10;1.45;;;;;;;;;;5067997;28;20537;-66
2021/04/19 11:09:20;;;;;;;4.22;1.88;;;;;;;;;;5066855;28;20024;-66
2021/04/19 11:11:50;;;;;;;4.88;2.83;;;;;;;;;;5066771;28;20033;-65
2021/04/19 11:14:23;;;;;;;2.38;1.73;;;;;;;;;;5067256;28;20033;-65
2021/04/19 11:17:05;;;;;;;3.25;1.80;;;;;;;;;;5067684;28;20025;-65
2021/04/19 11:19:31;;;;;;;6.75;2.25;;;;;;;;;;5027753;28;20076;-65
2021/04/19 11:21:56;;;;;;;4.25;2.13;;;;;;;;;;5027408;28;20057;-65
2021/04/19 11:24:33;;;;;;;4.93;2.15;;;;;;;;;;5027757;28;20695;-65
2021/04/19 11:27:03;;;;;;;4.50;1.90;;;;;;;;;;5027153;28;20025;-65
2021/04/19 11:29:41;;;;;;;2.40;1.73;;;;;;;;;;5027419;28;20029;-65
2021/04/19 11:32:07;;;;;;;6.95;2.45;;;;;;;;;;5027646;28;20029;-66
2021/04/19 11:34:37;;;;;;;4.90;3.67;;;;;;;;;;5027859;28;20640;-66
2021/04/19 11:37:02;;;;;;;3.25;2.35;;;;;;;;;;5029527;28;20677;-66
2021/04/19 11:39:31;;;;;;;7.53;3.58;;;;;;;;;;5030547;28;20061;-66
2021/04/19 11:41:56;;;;;;;4.18;2.65;;;;;;;;;;5030764;28;20536;-66
2021/04/19 11:44:41;;;;;;;5.82;3.13;;;;;;;;;;5030927;28;20108;-65
2021/04/19 11:47:07;;;;;;;5.25;3.08;;;;;;;;;;5029639;28;20041;-66
2021/04/19 11:49:32;;;;;;;5.63;2.53;;;;;;;;;;5030648;28;20040;-66
2021/04/19 11:51:57;;;;;;;3.00;2.17;;;;;;;;;;5030242;28;20037;-67
2021/04/19 11:54:23;;;;;;;3.15;2.22;;;;;;;;;;5030109;28;20021;-64
2021/04/19 11:56:48;;;;;;;4.63;2.25;;;;;;;;;;5030139;28;20021;-65
2021/04/19 11:59:13;;;;;;;5.15;2.22;;;;;;;;;;5030798;28;20112;-65
2021/04/19 12:01:39;;;;;;;12.85;2.85;;;;;;;;;;5029900;28;20036;-65
2021/04/19 12:04:05;;;;;;;10.00;2.97;;;;;;;;;;5029999;28;20053;-65
2021/04/19 12:06:31;;;;;;;29.90;2.72;;;;;;;;;;5028072;28;20017;-66
2021/04/19 12:08:56;;;;;;;2.40;1.75;;;;;;;;;;5028585;28;20025;-66
2021/04/19 12:11:22;;;;;;;3.53;1.85;;;;;;;;;;5029829;28;20117;-66
2021/04/19 12:13:51;;;;;;;3.72;2.40;;;;;;;;;;5030209;28;20140;-66
2021/04/19 12:16:18;;;;;;;3.22;1.88;;;;;;;;;;5030000;28;20525;-65
2021/04/19 12:18:44;;;;;;;3.00;1.65;;;;;;;;;;5057960;28;20094;-66
2021/04/19 12:21:09;;;;;;;3.30;2.20;;;;;;;;;;5068861;28;20052;-65
2021/04/19 12:23:34;;;;;;;4.50;2.60;;;;;;;;;;5070675;28;20360;-66
2021/04/19 12:26:00;;;;;;;9.55;2.50;;;;;;;;;;5069753;28;20032;-65
2021/04/19 12:28:26;;;;;;;2.80;2.08;;;;;;;;;;5070058;28;20029;-64
2021/04/19 12:30:51;;;;;;;5.95;3.00;;;;;;;;;;5069530;28;20070;-66
2021/04/19 12:33:17;;;;;;;8.20;2.30;;;;;;;;;;5069985;28;20024;-65
2021/04/19 12:35:42;;;;;;;6.25;2.38;;;;;;;;;;5069539;28;20067;-66
2021/04/19 12:38:08;;;;;;;5.20;1.67;;;;;;;;;;5069807;28;20024;-66
2021/04/19 12:40:33;;;;;;;7.28;2.92;;;;;;;;;;5069481;28;20081;-66
2021/04/19 12:42:59;;;;;;;3.00;1.58;;;;;;;;;;5069618;28;20036;-65
2021/04/19 12:45:31;;;;;;;16.88;3.33;;;;;;;;;;5069600;28;20087;-66
2021/04/19 12:47:56;;;;;;;3.17;2.00;;;;;;;;;;5069821;28;20032;-66
2021/04/19 12:50:21;;;;;;;11.13;2.50;;;;;;;;;;5069516;28;20126;-63
2021/04/19 12:52:47;;;;;;;1.90;1.60;;;;;;;;;;5069423;28;20486;-62
2021/04/19 12:55:12;;;;;;;1.80;1.20;;;;;;;;;;5069425;28;20021;-64
2021/04/19 12:57:38;;;;;;;7.85;2.50;;;;;;;;;;5069969;28;20108;-64
2021/04/19 13:00:04;;;;;;;5.00;2.67;;;;;;;;;;5069923;28;20039;-63
2021/04/19 13:02:29;;;;;;;2.63;1.70;;;;;;;;;;5069968;28;20036;-64
2021/04/19 13:04:54;;;;;;;12.70;2.13;;;;;;;;;;5070101;28;20028;-72
2021/04/19 13:07:20;;;;;;;12.65;2.92;;;;;;;;;;5071335;28;20034;-72
2021/04/19 13:09:45;;;;;;;3.88;1.75;;;;;;;;;;5072742;28;20115;-70
2021/04/19 13:12:11;;;;;;;8.40;2.90;;;;;;;;;;5074431;28;20566;-71
2021/04/19 13:14:38;;;;;;;4.80;2.45;;;;;;;;;;5072383;28;20034;-74
2021/04/19 13:17:03;;;;;;;2.97;1.85;;;;;;;;;;5073587;28;20029;-72
2021/04/19 13:19:29;;;;;;;6.82;2.05;;;;;;;;;;5073246;28;20048;-74
2021/04/19 13:21:54;;;;;;;4.75;2.13;;;;;;;;;;5072214;28;20059;-74
2021/04/19 13:24:20;;;;;;;4.43;2.15;;;;;;;;;;5073344;28;20115;-74
2021/04/19 13:26:46;;;;;;;2.97;1.73;;;;;;;;;;5073540;28;20112;-74
2021/04/19 13:29:12;;;;;;;7.40;3.85;;;;;;;;;;5072846;28;20115;-74
2021/04/19 13:31:37;;;;;;;8.38;2.50;;;;;;;;;;5072762;28;20366;-74
2021/04/19 13:34:02;;;;;;;4.40;2.20;;;;;;;;;;5072941;28;20040;-73
2021/04/19 13:36:28;;;;;;;4.93;2.60;;;;;;;;;;5072732;28;20483;-74
2021/04/19 13:38:54;;;;;;;9.50;3.75;;;;;;;;;;5070943;28;20461;-74
2021/04/19 13:41:19;;;;;;;3.22;1.42;;;;;;;;;;5072646;28;20043;-74
2021/04/19 13:43:44;;;;;;;7.38;1.77;;;;;;;;;;5073556;28;20028;-74
2021/04/19 13:46:10;;;;;;;1.83;1.35;;;;;;;;;;5071878;28;20028;-73
2021/04/19 13:48:35;;;;;;;5.30;1.85;;;;;;;;;;5073104;28;20070;-74
2021/04/19 13:51:00;;;;;;;5.25;2.28;;;;;;;;;;5072033;28;20068;-74
2021/04/19 13:53:26;;;;;;;5.95;2.55;;;;;;;;;;5073041;28;20052;-73
2021/04/19 13:55:51;;;;;;;3.60;1.85;;;;;;;;;;5072893;28;20073;-73
2021/04/19 13:58:16;;;;;;;4.50;2.63;;;;;;;;;;5072826;28;20039;-71
2021/04/19 14:00:41;;;;;;;6.00;2.65;;;;;;;;;;5071075;28;20056;-71
2021/04/19 14:03:07;;;;;;;3.60;2.83;;;;;;;;;;5073366;28;20469;-71
2021/04/19 14:05:32;;;;;;;9.80;2.88;;;;;;;;;;5072917;28;20032;-71
2021/04/19 14:07:57;;;;;;;11.40;2.90;;;;;;;;;;5072901;28;20685;-70
2021/04/19 14:10:23;;;;;;;7.45;2.33;;;;;;;;;;5072137;28;20025;-70
2021/04/19 14:12:51;;;;;;;4.00;1.95;;;;;;;;;;5073456;28;20070;-70
2021/04/19 14:15:16;;;;;;;4.28;2.03;;;;;;;;;;5072732;28;20541;-71
2021/04/19 14:17:42;;;;;;;6.28;2.08;;;;;;;;;;5071845;28;20143;-70
2021/04/19 14:20:09;;;;;;;6.50;2.97;;;;;;;;;;5073250;28;20158;-70
2021/04/19 14:22:37;;;;;;;6.28;2.25;;;;;;;;;;5072995;28;20036;-69
2021/04/19 14:25:03;;;;;;;4.35;2.15;;;;;;;;;;5072722;28;20040;-70
2021/04/19 14:27:28;;;;;;;2.35;1.92;;;;;;;;;;5071678;28;20028;-65
2021/04/19 14:29:54;;;;;;;5.65;1.85;;;;;;;;;;5072225;28;20064;-66
2021/04/19 14:32:19;;;;;;;3.35;2.38;;;;;;;;;;5072284;28;20108;-65
2021/04/19 14:34:45;;;;;;;2.30;1.75;;;;;;;;;;5072266;28;20035;-66
2021/04/19 14:37:10;;;;;;;1.25;0.85;;;;;;;;;;5072335;28;20194;-65
2021/04/19 14:39:35;;;;;;;11.77;2.88;;;;;;;;;;5071879;28;20459;-65